Time;durP1;ratioP1;P1;durP2;ratioP2;P2;SDS_P1;SDS_P2;PMS_P1;PMS_P2;Temp;Humidity;BMP_temperature;BMP_pressure;BME280_temperature;BME280_humidity;BME280_pressure;Samples;Min_cycle;Max_cycle;Signal;HPM_P1;HPM_P2
2021/12/12 00:01:12;;;;;;;53.90;31.00;;;;;;;7.15;86.84;101017.30;106011;1275;70683;-88
2021/12/12 00:03:47;;;;;;;53.50;28.60;;;;;;;7.14;86.97;101020.16;105995;1275;68486;-88
2021/12/12 00:06:26;;;;;;;51.00;28.00;;;;;;;7.10;87.15;101016.52;105831;1275;72029;-90
2021/12/12 00:09:16;;;;;;;53.20;28.80;;;;;;;7.19;87.54;101016.42;106092;1276;60626;-88
2021/12/12 00:11:44;;;;;;;52.80;28.30;;;;;;;7.16;87.58;101011.04;106193;1276;60578;-88
2021/12/12 00:14:24;;;;;;;49.10;28.40;;;;;;;7.13;86.80;101011.51;106125;1274;73258;-87
2021/12/12 00:16:54;;;;;;;52.70;28.00;;;;;;;7.08;86.84;101010.39;106204;1272;70377;-89
2021/12/12 00:19:23;;;;;;;52.20;28.30;;;;;;;7.11;87.39;101010.40;106149;1276;69651;-91
2021/12/12 00:21:55;;;;;;;61.00;30.90;;;;;;;7.13;87.50;101007.36;106170;1272;71186;-87
2021/12/12 00:24:24;;;;;;;55.50;28.00;;;;;;;7.08;87.50;101004.36;105828;1275;61366;-87
2021/12/12 00:26:54;;;;;;;62.70;31.40;;;;;;;7.06;87.58;100997.67;105880;1272;59117;-88
2021/12/12 00:29:23;;;;;;;55.00;29.40;;;;;;;7.05;87.79;100998.95;106227;1274;72261;-90
2021/12/12 00:31:57;;;;;;;54.10;28.60;;;;;;;7.05;87.79;100995.50;106258;1272;71035;-89
2021/12/12 00:34:29;;;;;;;57.90;29.80;;;;;;;7.02;87.43;100995.66;106215;1272;71052;-89
2021/12/12 00:36:58;;;;;;;53.70;26.00;;;;;;;7.09;87.88;100991.78;106037;1275;72359;-85
2021/12/12 00:39:29;;;;;;;52.00;26.70;;;;;;;7.17;87.62;100989.97;106933;1272;63032;-87
2021/12/12 00:42:09;;;;;;;51.10;25.90;;;;;;;7.19;87.69;100986.11;106025;1276;59480;-89
2021/12/12 00:44:44;;;;;;;47.30;24.90;;;;;;;7.20;88.09;100986.55;106617;1275;73719;-88
2021/12/12 00:47:15;;;;;;;55.40;26.80;;;;;;;7.13;87.54;100980.68;106928;1275;72165;-88
2021/12/12 00:50:10;;;;;;;53.40;26.70;;;;;;;7.15;87.47;100979.56;106718;1275;71068;-88
2021/12/12 00:52:40;;;;;;;41.10;24.10;;;;;;;7.20;87.52;100974.96;105499;1278;71833;-86
2021/12/12 00:55:09;;;;;;;48.40;25.40;;;;;;;7.21;88.04;100971.25;105748;1274;62190;-84
2021/12/12 00:57:37;;;;;;;47.70;26.90;;;;;;;7.20;87.34;100975.30;105730;1273;59904;-85
2021/12/12 01:00:09;;;;;;;50.50;25.70;;;;;;;7.21;87.08;100975.27;105674;1275;71707;-85
2021/12/12 01:02:38;;;;;;;42.70;23.20;;;;;;;7.27;87.71;100968.19;105704;1273;69676;-86
2021/12/12 01:05:07;;;;;;;49.70;25.60;;;;;;;7.29;87.92;100969.81;105665;1275;70525;-85
2021/12/12 01:07:38;;;;;;;42.70;24.60;;;;;;;7.24;87.44;100956.36;105783;1275;72377;-86
2021/12/12 01:10:13;;;;;;;46.60;23.20;;;;;;;7.32;87.36;100962.84;105777;1275;62430;-86
2021/12/12 01:12:41;;;;;;;44.80;23.00;;;;;;;7.36;87.91;100968.02;105757;1275;60870;-85
2021/12/12 01:15:16;;;;;;;45.40;22.80;;;;;;;7.32;87.61;100968.94;105790;1275;71353;-86
2021/12/12 01:17:50;;;;;;;44.00;22.20;;;;;;;7.37;87.34;100964.83;106715;1275;72377;-89
2021/12/12 01:20:38;;;;;;;43.60;22.40;;;;;;;7.42;86.78;100963.55;106829;1275;70424;-89
2021/12/12 01:23:26;;;;;;;37.30;22.40;;;;;;;7.43;86.83;100961.41;106668;1275;72801;-90
2021/12/12 01:25:55;;;;;;;36.50;22.10;;;;;;;7.40;87.19;100963.77;105947;1276;60584;-87
2021/12/12 01:28:28;;;;;;;45.90;21.50;;;;;;;7.41;87.08;100960.83;105798;1275;58738;-86
2021/12/12 01:31:01;;;;;;;39.30;20.80;;;;;;;7.39;86.94;100965.41;105862;1275;72674;-88
2021/12/12 01:33:33;;;;;;;35.90;19.20;;;;;;;7.36;86.61;100968.16;105823;1275;70567;-88
2021/12/12 01:36:46;;;;;;;39.40;20.80;;;;;;;7.39;86.75;100981.55;105809;1275;67770;-89
2021/12/12 01:39:16;;;;;;;40.70;20.30;;;;;;;7.44;86.73;100982.80;105874;1275;73232;-89
2021/12/12 01:41:50;;;;;;;38.50;20.10;;;;;;;7.47;86.50;100974.69;106402;1275;64554;-90
2021/12/12 01:44:26;;;;;;;33.40;19.80;;;;;;;7.48;86.63;100960.10;106261;1275;58835;-87
2021/12/12 01:47:07;;;;;;;38.40;21.40;;;;;;;7.50;86.62;100959.81;105883;1275;72583;-87
2021/12/12 01:49:39;;;;;;;37.90;21.10;;;;;;;7.50;86.38;100955.49;105778;1276;70267;-88
2021/12/12 01:52:11;;;;;;;37.50;20.20;;;;;;;7.50;86.52;100955.45;105715;1275;67924;-89
2021/12/12 01:54:44;;;;;;;33.90;18.90;;;;;;;7.51;87.48;100957.46;105587;1277;73419;-89
2021/12/12 01:57:37;;;;;;;34.70;18.50;;;;;;;7.46;87.09;100954.29;105686;1276;61211;-89
2021/12/12 02:00:18;;;;;;;34.60;19.40;;;;;;;7.44;86.70;100947.83;105922;1272;58868;-87
2021/12/12 02:02:47;;;;;;;37.40;18.60;;;;;;;7.44;86.66;100947.33;105818;1277;72112;-85
2021/12/12 02:05:17;;;;;;;34.10;19.30;;;;;;;7.48;86.30;100945.55;105591;1276;70446;-84
2021/12/12 02:07:57;;;;;;;33.60;17.90;;;;;;;7.52;86.58;100946.90;106200;1276;69547;-86
2021/12/12 02:10:31;;;;;;;37.40;18.10;;;;;;;7.55;86.56;100943.72;105647;1275;73781;-83
2021/12/12 02:13:02;;;;;;;;;;;;;;;7.56;86.39;100940.42;105638;1275;62409;-86
2021/12/12 02:15:34;;;;;;;40.10;19.00;;;;;;;7.48;86.49;100934.42;105688;1275;60951;-84
2021/12/12 02:18:07;;;;;;;35.80;18.70;;;;;;;7.51;86.69;100932.17;105536;1278;73660;-86
2021/12/12 02:20:46;;;;;;;29.90;16.60;;;;;;;7.51;86.79;100931.00;105695;1275;71101;-85
2021/12/12 02:23:40;;;;;;;27.50;16.60;;;;;;;7.54;86.81;100930.79;105744;1275;69976;-85
2021/12/12 02:37:19;;;;;;;36.30;17.30;;;;;;;7.69;86.46;100912.96;105841;1275;69774;-86
2021/12/12 02:39:48;;;;;;;29.10;15.80;;;;;;;7.62;86.17;100917.66;105720;1277;68039;-86
2021/12/12 02:42:21;;;;;;;26.20;14.90;;;;;;;7.70;86.64;100921.76;105626;1275;71197;-86
2021/12/12 02:44:55;;;;;;;24.30;14.70;;;;;;;7.75;87.37;100924.59;105685;1277;63291;-85
2021/12/12 02:47:32;;;;;;;27.40;14.30;;;;;;;7.78;87.14;100927.40;105734;1276;60152;-85
2021/12/12 02:50:13;;;;;;;26.40;15.30;;;;;;;7.80;86.46;100920.85;105680;1275;73667;-85
2021/12/12 02:52:50;;;;;;;24.40;13.00;;;;;;;7.78;86.58;100923.73;105732;1275;73890;-84
2021/12/12 02:55:28;;;;;;;24.20;13.60;;;;;;;7.77;86.10;100924.15;105695;1274;70427;-85
2021/12/12 02:57:59;;;;;;;30.20;13.00;;;;;;;7.82;86.46;100931.09;105653;1272;71373;-85
2021/12/12 03:00:35;;;;;;;23.70;12.00;;;;;;;7.88;86.23;100924.67;105770;1275;61450;-85
2021/12/12 03:03:04;;;;;;;24.90;12.10;;;;;;;7.93;86.41;100915.20;105701;1275;61362;-84
2021/12/12 03:05:38;;;;;;;28.70;12.30;;;;;;;7.94;86.24;100916.22;105540;1278;74135;-83
2021/12/12 03:08:06;;;;;;;23.80;11.80;;;;;;;7.92;86.34;100913.53;105708;1275;73990;-84
2021/12/12 03:10:38;;;;;;;27.50;11.80;;;;;;;7.93;86.72;100912.29;105659;1278;69475;-86
2021/12/12 03:13:07;;;;;;;23.00;10.90;;;;;;;7.93;87.05;100910.36;105765;1275;73932;-84
2021/12/12 03:15:39;;;;;;;25.60;11.70;;;;;;;7.90;86.15;100916.59;105703;1275;63536;-85
2021/12/12 03:18:17;;;;;;;18.80;9.80;;;;;;;7.96;86.34;100909.33;105670;1275;60931;-85
2021/12/12 03:20:56;;;;;;;22.70;12.00;;;;;;;7.95;86.09;100907.96;105591;1275;71585;-85
2021/12/12 03:23:29;;;;;;;24.40;10.30;;;;;;;7.96;86.41;100907.91;105505;1275;70393;-84
2021/12/12 03:26:04;;;;;;;22.90;10.40;;;;;;;7.97;86.07;100903.16;105483;1275;68826;-85
2021/12/12 03:28:36;;;;;;;20.40;10.40;;;;;;;7.95;85.96;100893.91;105508;1275;73820;-85
2021/12/12 03:31:15;;;;;;;19.30;10.30;;;;;;;8.00;86.30;100899.05;105595;1275;62842;-84
2021/12/12 03:33:44;;;;;;;21.70;10.50;;;;;;;8.09;86.44;100903.36;105848;1275;61033;-85
2021/12/12 03:36:13;;;;;;;24.30;11.30;;;;;;;8.06;86.39;100906.63;105970;1275;74065;-87
2021/12/12 03:38:47;;;;;;;20.10;9.40;;;;;;;8.07;86.32;100902.92;106114;1275;70167;-84
2021/12/12 03:41:20;;;;;;;23.20;9.80;;;;;;;8.06;86.30;100900.58;107036;1277;71511;-84
2021/12/12 03:43:56;;;;;;;25.70;9.90;;;;;;;8.09;86.64;100897.98;107417;1273;71602;-85
2021/12/12 03:46:24;;;;;;;18.50;9.80;;;;;;;8.09;86.56;100896.56;107303;1276;62178;-85
2021/12/12 03:48:54;;;;;;;20.80;9.80;;;;;;;8.08;86.55;100894.77;106018;1276;61589;-89
2021/12/12 03:51:26;;;;;;;15.60;7.60;;;;;;;8.05;86.42;100889.73;105626;1277;72383;-88
2021/12/12 03:53:55;;;;;;;15.80;8.00;;;;;;;8.15;87.19;100892.96;105622;1275;71347;-87
2021/12/12 03:56:24;;;;;;;19.80;9.50;;;;;;;8.16;86.72;100902.45;105727;1275;69206;-87
2021/12/12 03:58:53;;;;;;;14.30;8.10;;;;;;;8.19;86.61;100907.99;105509;1273;75364;-87
2021/12/12 04:01:35;;;;;;;18.90;8.20;;;;;;;8.22;86.89;100902.23;105525;1275;63416;-90
2021/12/12 04:04:21;;;;;;;22.20;9.20;;;;;;;8.32;87.71;100903.71;105603;1275;60114;-85
2021/12/12 04:06:50;;;;;;;20.90;8.80;;;;;;;8.27;87.03;100901.05;105661;1276;72916;-85
2021/12/12 04:09:20;;;;;;;19.50;8.70;;;;;;;8.29;86.86;100904.78;105623;1278;70432;-85
2021/12/12 04:11:57;;;;;;;17.20;9.10;;;;;;;8.28;86.71;100902.56;105685;1272;70579;-84
2021/12/12 04:14:27;;;;;;;21.70;8.50;;;;;;;8.31;86.72;100907.23;105681;1276;72075;-85
2021/12/12 04:17:02;;;;;;;21.50;8.90;;;;;;;8.36;86.70;100910.29;105491;1275;63709;-86
2021/12/12 04:19:30;;;;;;;18.80;6.80;;;;;;;8.35;86.24;100917.24;105579;1275;61723;-80
2021/12/12 04:22:00;;;;;;;18.90;8.50;;;;;;;8.36;86.24;100913.55;105589;1272;72244;-84
2021/12/12 04:24:33;;;;;;;17.10;7.80;;;;;;;8.35;86.71;100908.74;105487;1278;71353;-86
2021/12/12 04:27:03;;;;;;;22.30;7.80;;;;;;;8.42;86.91;100912.36;105541;1275;71559;-85
2021/12/12 04:29:39;;;;;;;13.70;6.20;;;;;;;8.40;86.33;100911.09;106355;1277;72116;-83
2021/12/12 04:32:15;;;;;;;15.70;6.10;;;;;;;8.43;86.50;100908.64;106359;1275;62734;-87
2021/12/12 04:34:51;;;;;;;16.30;6.40;;;;;;;8.45;86.26;100903.33;105797;1275;62089;-87
2021/12/12 04:37:20;;;;;;;14.40;7.00;;;;;;;8.51;86.47;100903.68;105781;1275;74097;-86
2021/12/12 04:39:53;;;;;;;15.10;5.50;;;;;;;8.44;86.15;100902.66;105808;1276;70776;-87
2021/12/12 04:42:35;;;;;;;15.10;5.40;;;;;;;8.50;86.33;100894.32;106947;1276;71575;-87
2021/12/12 04:45:38;;;;;;;11.80;5.50;;;;;;;8.52;85.81;100895.96;106346;1276;74338;-85
2021/12/12 04:51:21;;;;;;;12.30;4.70;;;;;;;8.57;85.74;100894.40;105847;1277;61093;-86
2021/12/12 04:54:02;;;;;;;13.60;4.90;;;;;;;8.54;85.60;100898.25;105783;1275;73705;-89
2021/12/12 04:56:40;;;;;;;12.00;5.00;;;;;;;8.52;85.85;100893.89;105709;1275;69879;-90
2021/12/12 04:59:36;;;;;;;17.50;6.20;;;;;;;8.61;86.82;100890.38;105771;1275;71554;-85
2021/12/12 05:02:16;;;;;;;14.30;5.20;;;;;;;8.49;86.41;100891.09;105219;1275;538723;-87
2021/12/12 05:05:17;;;;;;;15.70;5.40;;;;;;;8.48;86.36;100892.02;105685;1276;61929;-86
2021/12/12 05:08:04;;;;;;;16.40;5.40;;;;;;;8.51;87.08;100889.40;105779;1275;58789;-89
2021/12/12 05:10:45;;;;;;;11.80;4.70;;;;;;;8.46;86.79;100899.74;105764;1277;73693;-87
2021/12/12 05:13:24;;;;;;;15.10;4.80;;;;;;;8.48;86.94;100904.35;105648;1275;71374;-86
2021/12/12 05:15:59;;;;;;;14.30;4.30;;;;;;;8.49;87.03;100898.58;105765;1277;69703;-84
2021/12/12 05:18:32;;;;;;;12.00;4.70;;;;;;;8.48;86.75;100902.80;105789;1275;74108;-87
2021/12/12 05:21:05;;;;;;;19.00;5.40;;;;;;;8.49;86.91;100901.84;106037;1275;62230;-85
2021/12/12 05:23:33;;;;;;;24.50;6.20;;;;;;;8.51;86.79;100902.79;105986;1272;60272;-85
2021/12/12 05:26:07;;;;;;;18.40;6.10;;;;;;;8.56;87.01;100908.17;105670;1278;71742;-82
2021/12/12 05:28:40;;;;;;;16.90;5.70;;;;;;;8.62;86.89;100909.09;105651;1276;72308;-84
2021/12/12 05:31:10;;;;;;;23.40;6.10;;;;;;;8.60;86.32;100907.98;105688;1276;69921;-83
2021/12/12 05:33:39;;;;;;;17.70;5.10;;;;;;;8.56;86.31;100909.77;105527;1277;74901;-87
2021/12/12 05:36:09;;;;;;;14.70;4.40;;;;;;;8.65;87.62;100910.28;105750;1275;63449;-88
2021/12/12 05:38:38;;;;;;;15.80;4.90;;;;;;;8.59;86.40;100907.13;105870;1275;60240;-86
2021/12/12 05:41:08;;;;;;;20.40;5.10;;;;;;;8.59;86.28;100907.88;105706;1275;72821;-88
2021/12/12 05:43:37;;;;;;;17.00;4.70;;;;;;;8.55;86.09;100901.00;105681;1275;71963;-87
2021/12/12 05:46:05;;;;;;;12.50;4.10;;;;;;;8.59;86.48;100902.33;105900;1275;70065;-87
2021/12/12 05:48:34;;;;;;;15.50;4.40;;;;;;;8.57;86.58;100902.45;107065;1275;72433;-84
2021/12/12 05:51:03;;;;;;;9.00;4.20;;;;;;;8.57;86.34;100907.78;105983;1275;61629;-89
2021/12/12 05:53:31;;;;;;;14.60;5.40;;;;;;;8.58;86.75;100907.73;106042;1272;60668;-87
2021/12/12 05:56:00;;;;;;;10.70;4.40;;;;;;;8.61;86.61;100907.70;105674;1278;72699;-83
2021/12/12 05:58:30;;;;;;;15.50;4.40;;;;;;;8.61;86.37;100902.17;105711;1275;71308;-87
2021/12/12 06:01:03;;;;;;;13.70;4.10;;;;;;;8.57;86.46;100902.75;105997;1276;71082;-86
2021/12/12 06:03:37;;;;;;;12.40;3.90;;;;;;;8.61;86.72;100904.64;105590;1278;72399;-84
2021/12/12 06:06:13;;;;;;;11.20;3.90;;;;;;;8.59;86.42;100907.49;105746;1275;61426;-84
2021/12/12 06:08:43;;;;;;;16.80;4.70;;;;;;;8.66;86.77;100915.23;105677;1278;59973;-87
2021/12/12 06:11:14;;;;;;;14.50;4.70;;;;;;;8.73;86.97;100920.02;105689;1275;71713;-85
2021/12/12 06:13:42;;;;;;;14.50;4.60;;;;;;;8.73;86.41;100918.96;105771;1276;71996;-84
2021/12/12 06:16:18;;;;;;;12.10;3.90;;;;;;;8.73;86.45;100917.56;105715;1278;69256;-87
2021/12/12 06:18:51;;;;;;;12.50;4.20;;;;;;;8.69;85.88;100917.98;105716;1277;73474;-88
2021/12/12 06:21:20;;;;;;;14.30;4.40;;;;;;;8.73;86.61;100917.23;105794;1275;61408;-89
2021/12/12 06:23:49;;;;;;;12.40;5.40;;;;;;;8.71;86.16;100921.50;106451;1276;60244;-86
2021/12/12 06:26:19;;;;;;;11.20;4.40;;;;;;;8.75;86.07;100927.70;106078;1277;74630;-85
2021/12/12 06:28:48;;;;;;;13.80;4.30;;;;;;;8.71;85.83;100928.79;105910;1275;70780;-85
2021/12/12 06:31:17;;;;;;;15.80;4.50;;;;;;;8.74;86.11;100933.14;105765;1277;69814;-84
2021/12/12 06:33:46;;;;;;;15.60;4.20;;;;;;;8.71;86.04;100936.98;105841;1276;72751;-84
2021/12/12 06:36:15;;;;;;;12.90;4.10;;;;;;;8.77;86.61;100956.58;105791;1276;63164;-84
2021/12/12 06:38:48;;;;;;;13.00;4.10;;;;;;;8.76;85.80;100982.50;105735;1275;59320;-84
2021/12/12 06:41:18;;;;;;;15.40;4.70;;;;;;;8.82;85.54;100995.73;105834;1276;73581;-87
2021/12/12 06:43:48;;;;;;;15.20;5.20;;;;;;;8.86;85.98;100994.58;105752;1275;72782;-87
2021/12/12 06:46:18;;;;;;;14.70;5.60;;;;;;;8.88;85.93;100993.41;105779;1278;69249;-85
2021/12/12 06:48:47;;;;;;;16.60;6.10;;;;;;;8.88;86.01;100989.98;105812;1275;72986;-89
2021/12/12 06:51:15;;;;;;;15.80;6.10;;;;;;;8.78;86.06;100979.62;105700;1276;63394;-87
2021/12/12 06:53:45;;;;;;;14.80;5.60;;;;;;;8.83;86.01;100980.05;105713;1275;58988;-86
2021/12/12 06:56:17;;;;;;;16.40;5.50;;;;;;;8.79;86.02;100975.23;105792;1276;71954;-85
2021/12/12 06:58:48;;;;;;;16.50;5.80;;;;;;;8.79;86.51;100970.87;105896;1272;71945;-86
2021/12/12 07:01:22;;;;;;;13.60;5.70;;;;;;;8.78;86.21;100961.94;105654;1277;71410;-86
2021/12/12 07:03:52;;;;;;;20.90;6.80;;;;;;;8.79;86.43;100952.30;105715;1276;73723;-86
2021/12/12 07:06:23;;;;;;;15.10;6.50;;;;;;;8.77;86.51;100952.59;105477;1275;62550;-87
2021/12/12 07:08:51;;;;;;;14.20;7.10;;;;;;;8.72;86.45;100942.14;105713;1276;61102;-88
2021/12/12 07:11:22;;;;;;;16.40;6.80;;;;;;;8.74;86.59;100940.79;105358;1278;73163;-89
2021/12/12 07:13:51;;;;;;;13.70;5.90;;;;;;;8.75;86.04;100943.52;105598;1275;71378;-89
2021/12/12 07:16:21;;;;;;;16.80;8.40;;;;;;;8.79;86.67;100938.25;105861;1276;70631;-87
2021/12/12 07:18:51;;;;;;;12.00;6.10;;;;;;;8.78;86.22;100933.96;105702;1276;74862;-85
2021/12/12 07:21:20;;;;;;;20.00;8.60;;;;;;;8.74;86.19;100935.92;105866;1273;64599;-87
2021/12/12 07:23:49;;;;;;;15.90;7.60;;;;;;;8.81;86.08;100947.00;105613;1276;62027;-86
2021/12/12 07:26:21;;;;;;;20.20;8.20;;;;;;;8.92;87.12;100948.73;105666;1277;72357;-86
2021/12/12 07:28:55;;;;;;;18.80;9.40;;;;;;;8.86;85.41;100948.60;105570;1276;70295;-85
2021/12/12 07:31:30;;;;;;;17.30;8.80;;;;;;;8.88;85.43;100948.80;105710;1272;69828;-85
2021/12/12 07:34:01;;;;;;;17.60;9.20;;;;;;;8.83;85.35;100945.98;105590;1276;74302;-87
2021/12/12 07:36:37;;;;;;;18.20;9.10;;;;;;;8.82;85.32;100943.64;105641;1276;62598;-88
2021/12/12 07:39:12;;;;;;;19.70;10.30;;;;;;;8.83;85.75;100941.30;105743;1272;60995;-86
2021/12/12 07:41:43;;;;;;;20.60;10.70;;;;;;;8.82;85.68;100940.63;106445;1276;71654;-86
2021/12/12 07:44:14;;;;;;;22.60;11.90;;;;;;;8.72;84.97;100939.31;105834;1272;71515;-86
2021/12/12 07:46:43;;;;;;;20.10;11.40;;;;;;;8.68;85.02;100935.08;105489;1276;71948;-83
2021/12/12 07:49:12;;;;;;;18.50;11.10;;;;;;;8.65;84.35;100928.83;105726;1275;71637;-85
2021/12/12 07:51:41;;;;;;;19.60;12.90;;;;;;;8.62;84.09;100921.37;105702;1276;59677;-86
2021/12/12 07:54:10;;;;;;;22.90;13.50;;;;;;;8.59;84.27;100915.34;105646;1275;59676;-86
2021/12/12 07:56:41;;;;;;;27.00;13.40;;;;;;;8.64;84.92;100917.09;105661;1276;73640;-86
2021/12/12 07:59:10;;;;;;;21.00;13.50;;;;;;;8.51;83.64;100915.98;105637;1276;71773;-86
2021/12/12 08:01:42;;;;;;;21.00;13.70;;;;;;;8.48;83.72;100925.66;105738;1276;70103;-86
2021/12/12 08:04:12;;;;;;;23.10;12.90;;;;;;;8.55;83.85;100931.22;105791;1276;72904;-85
2021/12/12 08:06:41;;;;;;;23.80;13.80;;;;;;;8.52;83.47;100941.10;105859;1276;60652;-88
2021/12/12 08:09:10;;;;;;;22.50;15.50;;;;;;;8.47;83.00;100950.39;105838;1272;60509;-87
2021/12/12 08:11:40;;;;;;;23.20;13.50;;;;;;;8.46;83.38;100964.35;105823;1276;70642;-89
2021/12/12 08:14:13;;;;;;;23.20;13.70;;;;;;;8.45;83.31;100964.95;106018;1276;72739;-84
2021/12/12 08:16:42;;;;;;;19.10;12.10;;;;;;;8.44;84.17;100959.63;105665;1278;68431;-89
2021/12/12 08:19:11;;;;;;;21.80;13.30;;;;;;;8.43;83.99;100957.80;106014;1277;71798;-91
2021/12/12 08:21:39;;;;;;;24.50;14.00;;;;;;;8.45;83.36;100960.59;106197;1276;62728;-87
2021/12/12 08:24:10;;;;;;;26.50;13.90;;;;;;;8.43;83.60;100962.44;105681;1277;61719;-90
2021/12/12 08:26:41;;;;;;;23.50;12.70;;;;;;;8.49;84.50;100963.30;105954;1276;73139;-91
2021/12/12 08:29:12;;;;;;;27.10;14.00;;;;;;;8.45;83.40;100967.54;106150;1276;70068;-91
2021/12/12 08:31:41;;;;;;;26.90;15.80;;;;;;;8.45;84.09;100965.81;106251;1276;67945;-89
2021/12/12 08:34:11;;;;;;;22.00;13.70;;;;;;;8.43;83.36;100973.59;106094;1272;71998;-88
2021/12/12 08:36:45;;;;;;;26.10;14.70;;;;;;;8.41;83.68;100967.09;105847;1272;62198;-88
2021/12/12 08:39:13;;;;;;;24.00;13.70;;;;;;;8.38;83.33;100968.15;106117;1276;61944;-87
2021/12/12 08:41:44;;;;;;;27.00;14.20;;;;;;;8.41;84.09;100963.99;105923;1275;73301;-87
2021/12/12 08:44:13;;;;;;;21.30;13.00;;;;;;;8.34;83.41;100962.80;105736;1277;69637;-88
2021/12/12 08:46:46;;;;;;;21.90;14.50;;;;;;;8.33;83.45;100960.23;105550;1278;68694;-86
2021/12/12 08:49:16;;;;;;;20.00;12.40;;;;;;;8.31;83.42;100960.52;105573;1277;72028;-84
2021/12/12 08:51:55;;;;;;;25.30;15.30;;;;;;;8.30;84.50;100962.67;105667;1272;62166;-79
2021/12/12 08:54:27;;;;;;;20.30;12.40;;;;;;;8.24;84.06;100959.75;105621;1278;60688;-88
2021/12/12 08:57:08;;;;;;;23.10;14.00;;;;;;;8.25;84.47;100955.31;105572;1273;73365;-85
2021/12/12 08:59:40;;;;;;;28.20;15.70;;;;;;;8.20;84.12;100950.75;105933;1275;69762;-81
2021/12/12 09:02:11;;;;;;;35.10;15.20;;;;;;;8.15;84.74;100947.26;105764;1275;68731;-81
2021/12/12 09:04:52;;;;;;;26.40;13.80;;;;;;;8.07;85.05;100943.91;105721;1277;73349;-81
2021/12/12 09:07:44;;;;;;;22.60;12.60;;;;;;;7.98;85.57;100929.86;105526;1276;63085;-81
2021/12/12 09:10:22;;;;;;;26.20;12.90;;;;;;;7.97;85.61;100936.48;105640;1278;59599;-85
2021/12/12 09:13:04;;;;;;;24.00;14.50;;;;;;;7.97;85.51;100933.02;105785;1276;74055;-87
2021/12/12 09:15:44;;;;;;;23.50;13.50;;;;;;;7.92;85.56;100936.25;105751;1278;71809;-83
2021/12/12 09:18:24;;;;;;;24.30;13.50;;;;;;;7.97;86.05;100938.23;105867;1276;68396;-84
2021/12/12 09:21:09;;;;;;;25.50;14.00;;;;;;;7.98;86.13;100927.94;105854;1275;71257;-82
2021/12/12 09:24:01;;;;;;;23.50;13.20;;;;;;;8.03;86.09;100918.13;105770;1272;62318;-83
2021/12/12 09:26:30;;;;;;;22.70;13.70;;;;;;;7.99;86.02;100916.95;106202;1275;59706;-83
2021/12/12 09:29:33;;;;;;;22.40;13.60;;;;;;;7.97;85.84;100918.27;107242;1276;74447;-85
2021/12/12 09:32:10;;;;;;;20.30;12.50;;;;;;;7.93;85.91;100903.95;107307;1277;72235;-84
2021/12/12 09:35:24;;;;;;;20.40;12.60;;;;;;;7.99;86.19;100908.30;106149;1278;68793;-81
2021/12/12 09:38:02;;;;;;;19.40;11.70;;;;;;;8.01;86.41;100906.23;105766;1276;73892;-85
2021/12/12 09:41:04;;;;;;;20.00;12.50;;;;;;;8.03;85.71;100907.67;105667;1277;62684;-83
2021/12/12 09:44:01;;;;;;;19.20;11.90;;;;;;;8.05;85.63;100897.88;105877;1276;60732;-85
2021/12/12 09:53:42;;;;;;;18.10;11.70;;;;;;;7.93;85.42;100896.65;105920;1274;68779;-79
2021/12/12 09:56:38;;;;;;;20.00;12.80;;;;;;;8.02;86.08;100895.98;105916;1276;74372;-80
2021/12/12 09:59:50;;;;;;;22.80;13.70;;;;;;;7.96;85.54;100890.44;105711;1272;61234;-84
2021/12/12 10:03:18;;;;;;;22.00;13.20;;;;;;;8.01;85.96;100886.65;105653;1276;59528;-83
2021/12/12 10:06:02;;;;;;;19.70;12.00;;;;;;;7.92;85.80;100881.30;105700;1276;72535;-84
2021/12/12 10:09:08;;;;;;;20.10;12.60;;;;;;;7.95;86.40;100884.74;105666;1276;72314;-81
2021/12/12 10:12:14;;;;;;;20.70;13.30;;;;;;;7.93;86.03;100889.89;105664;1277;69118;-81
2021/12/12 10:14:58;;;;;;;19.50;12.50;;;;;;;7.95;86.34;100886.33;105655;1272;73878;-79
2021/12/12 10:17:43;;;;;;;16.60;11.70;;;;;;;7.85;86.20;100885.70;105494;1278;62633;-82
2021/12/12 10:20:42;;;;;;;24.70;14.60;;;;;;;7.91;86.78;100880.32;105679;1276;61871;-80
2021/12/12 10:23:44;;;;;;;19.00;12.50;;;;;;;7.85;86.89;100875.83;105467;1276;75079;-84
2021/12/12 10:26:26;;;;;;;18.20;11.90;;;;;;;7.85;86.76;100868.55;105330;1276;72209;-82
2021/12/12 10:29:23;;;;;;;21.20;12.20;;;;;;;7.83;86.85;100866.90;105550;1276;70118;-81
2021/12/12 10:32:15;;;;;;;19.40;12.60;;;;;;;7.92;87.50;100859.28;105524;1276;73586;-80
2021/12/12 10:34:49;;;;;;;18.90;12.20;;;;;;;7.86;86.08;100849.57;105608;1276;61802;-83
2021/12/12 10:37:41;;;;;;;19.10;12.60;;;;;;;7.86;85.58;100847.14;105544;1275;61006;-82
2021/12/12 10:40:19;;;;;;;15.60;11.00;;;;;;;7.86;85.86;100849.53;105571;1276;75334;-77
2021/12/12 10:42:53;;;;;;;18.10;11.80;;;;;;;7.84;85.79;100850.23;105723;1272;72665;-83
2021/12/12 10:45:28;;;;;;;16.80;11.20;;;;;;;7.90;86.44;100842.77;105701;1276;70398;-85
2021/12/12 10:48:02;;;;;;;17.50;11.30;;;;;;;7.83;86.16;100837.82;105626;1275;74438;-87
2021/12/12 10:51:03;;;;;;;16.80;11.40;;;;;;;7.82;86.38;100839.77;105411;1276;62918;-84
2021/12/12 10:54:07;;;;;;;19.60;11.90;;;;;;;7.78;86.46;100831.30;105304;1278;59685;-79
2021/12/12 10:57:12;;;;;;;18.30;11.80;;;;;;;7.84;86.65;100836.55;105562;1272;72825;-80
2021/12/12 11:00:15;;;;;;;16.70;11.90;;;;;;;7.84;86.51;100832.54;105648;1275;73027;-83
2021/12/12 11:03:01;;;;;;;15.90;12.20;;;;;;;7.85;86.36;100833.63;105656;1274;70242;-83
2021/12/12 11:06:02;;;;;;;18.00;11.30;;;;;;;7.90;86.89;100826.42;105575;1272;73818;-85
2021/12/12 11:08:42;;;;;;;15.90;10.40;;;;;;;7.85;86.19;100816.70;105416;1276;63461;-85
2021/12/12 11:11:16;;;;;;;17.70;11.10;;;;;;;7.84;86.09;100816.71;105673;1272;62745;-79
2021/12/12 11:14:01;;;;;;;20.70;11.80;;;;;;;7.87;86.72;100812.39;105637;1276;73226;-81
2021/12/12 11:16:36;;;;;;;16.80;12.10;;;;;;;7.89;86.86;100814.16;105682;1275;71610;-84
2021/12/12 11:19:15;;;;;;;16.80;11.00;;;;;;;7.92;86.56;100819.01;105502;1277;68747;-79
2021/12/12 11:21:48;;;;;;;17.40;10.90;;;;;;;7.89;86.05;100820.43;105523;1278;73924;-80
2021/12/12 11:24:35;;;;;;;17.20;11.60;;;;;;;7.86;85.93;100819.89;105573;1278;60413;-84
2021/12/12 11:27:22;;;;;;;18.00;11.70;;;;;;;7.96;86.75;100821.58;105477;1276;59751;-80
2021/12/12 11:30:00;;;;;;;18.60;10.60;;;;;;;7.86;85.81;100820.43;105697;1276;74569;-82
2021/12/12 11:32:34;;;;;;;15.60;10.70;;;;;;;7.97;86.41;100823.09;105558;1276;71932;-82
2021/12/12 11:35:07;;;;;;;14.10;9.70;;;;;;;7.94;85.86;100826.85;105567;1276;71625;-80
2021/12/12 11:38:14;;;;;;;12.00;8.40;;;;;;;7.91;85.59;100830.34;105670;1275;73710;-85
2021/12/12 11:40:46;;;;;;;18.50;10.20;;;;;;;7.92;85.27;100833.27;105711;1275;60446;-70
2021/12/12 11:43:23;;;;;;;15.10;9.60;;;;;;;8.00;85.31;100832.45;105544;1276;59771;-73
2021/12/12 11:45:59;;;;;;;15.50;10.60;;;;;;;8.04;85.45;100829.38;105662;1276;74562;-73
2021/12/12 11:48:46;;;;;;;14.90;10.20;;;;;;;8.15;86.04;100832.74;105738;1275;70047;-72
2021/12/12 11:51:30;;;;;;;16.90;10.60;;;;;;;8.15;85.15;100834.84;105637;1276;71074;-70
2021/12/12 11:54:10;;;;;;;14.80;10.40;;;;;;;8.19;86.36;100837.70;105688;1276;74004;-73
2021/12/12 11:57:14;;;;;;;15.30;9.80;;;;;;;8.07;85.27;100846.73;105766;1275;61101;-88
2021/12/12 12:00:14;;;;;;;14.40;9.50;;;;;;;8.06;85.29;100839.35;105780;1272;59690;-84
2021/12/12 12:02:56;;;;;;;12.70;9.10;;;;;;;8.07;85.16;100836.38;105769;1276;74545;-84
2021/12/12 12:05:44;;;;;;;13.40;8.80;;;;;;;7.98;84.90;100835.52;105773;1276;74198;-89
2021/12/12 12:09:00;;;;;;;14.60;10.10;;;;;;;8.02;84.85;100828.84;105807;1276;69725;-86
2021/12/12 12:11:58;;;;;;;13.80;8.50;;;;;;;8.03;85.62;100824.77;105457;1276;71585;-86
2021/12/12 12:14:51;;;;;;;12.20;7.60;;;;;;;7.90;84.90;100828.49;105639;1276;63400;-84
2021/12/12 12:17:53;;;;;;;13.30;7.70;;;;;;;7.91;84.95;100829.86;105623;1276;60287;-85